sensor_id;sensor_type;location;lat;lon;timestamp;P1;durP1;ratioP1;P2;durP2;ratioP2
72209;SDS011;60113;48.762;12.302;2023-05-10T00:01:24;4.10;;;2.67;;
72209;SDS011;60113;48.762;12.302;2023-05-10T00:03:49;3.30;;;2.42;;
72209;SDS011;60113;48.762;12.302;2023-05-10T00:06:15;4.43;;;2.63;;
72209;SDS011;60113;48.762;12.302;2023-05-10T00:08:41;4.55;;;2.50;;
72209;SDS011;60113;48.762;12.302;2023-05-10T00:11:06;3.75;;;2.42;;
72209;SDS011;60113;48.762;12.302;2023-05-10T00:13:32;4.75;;;2.65;;
72209;SDS011;60113;48.762;12.302;2023-05-10T00:16:01;3.55;;;2.83;;
72209;SDS011;60113;48.762;12.302;2023-05-10T00:18:26;7.32;;;2.50;;
72209;SDS011;60113;48.762;12.302;2023-05-10T00:20:53;3.45;;;2.35;;
72209;SDS011;60113;48.762;12.302;2023-05-10T00:23:19;4.85;;;2.60;;
72209;SDS011;60113;48.762;12.302;2023-05-10T00:25:45;5.43;;;2.40;;
72209;SDS011;60113;48.762;12.302;2023-05-10T00:28:10;3.03;;;2.50;;
72209;SDS011;60113;48.762;12.302;2023-05-10T00:30:36;3.70;;;2.63;;
72209;SDS011;60113;48.762;12.302;2023-05-10T00:33:04;4.88;;;2.65;;
72209;SDS011;60113;48.762;12.302;2023-05-10T00:35:41;3.15;;;2.50;;
72209;SDS011;60113;48.762;12.302;2023-05-10T00:38:15;3.65;;;2.63;;
72209;SDS011;60113;48.762;12.302;2023-05-10T00:40:42;3.42;;;2.50;;
72209;SDS011;60113;48.762;12.302;2023-05-10T00:43:09;4.43;;;2.70;;
72209;SDS011;60113;48.762;12.302;2023-05-10T00:45:34;4.25;;;2.75;;
72209;SDS011;60113;48.762;12.302;2023-05-10T00:48:08;3.15;;;2.38;;
72209;SDS011;60113;48.762;12.302;2023-05-10T00:50:57;5.43;;;3.00;;
72209;SDS011;60113;48.762;12.302;2023-05-10T00:59:16;6.13;;;3.20;;
72209;SDS011;60113;48.762;12.302;2023-05-10T01:01:43;5.20;;;2.90;;
72209;SDS011;60113;48.762;12.302;2023-05-10T01:04:13;4.45;;;2.83;;
72209;SDS011;60113;48.762;12.302;2023-05-10T01:06:40;3.92;;;2.67;;
72209;SDS011;60113;48.762;12.302;2023-05-10T01:12:20;5.15;;;3.20;;
72209;SDS011;60113;48.762;12.302;2023-05-10T01:14:46;3.97;;;2.65;;
72209;SDS011;60113;48.762;12.302;2023-05-10T01:17:15;6.45;;;3.00;;
72209;SDS011;60113;48.762;12.302;2023-05-10T01:19:41;4.10;;;2.72;;
72209;SDS011;60113;48.762;12.302;2023-05-10T01:34:32;4.43;;;2.90;;
72209;SDS011;60113;48.762;12.302;2023-05-10T01:37:15;3.15;;;2.47;;
72209;SDS011;60113;48.762;12.302;2023-05-10T01:39:50;3.75;;;3.00;;
72209;SDS011;60113;48.762;12.302;2023-05-10T01:42:49;4.05;;;2.83;;
72209;SDS011;60113;48.762;12.302;2023-05-10T01:45:20;5.47;;;2.72;;
72209;SDS011;60113;48.762;12.302;2023-05-10T01:48:06;3.85;;;2.90;;
72209;SDS011;60113;48.762;12.302;2023-05-10T01:53:24;4.70;;;3.10;;
72209;SDS011;60113;48.762;12.302;2023-05-10T01:55:53;5.30;;;3.05;;
72209;SDS011;60113;48.762;12.302;2023-05-10T01:58:25;5.97;;;3.33;;
72209;SDS011;60113;48.762;12.302;2023-05-10T02:01:05;6.00;;;3.17;;
72209;SDS011;60113;48.762;12.302;2023-05-10T02:06:23;5.88;;;3.25;;
72209;SDS011;60113;48.762;12.302;2023-05-10T02:08:53;4.30;;;3.17;;
72209;SDS011;60113;48.762;12.302;2023-05-10T02:11:19;5.57;;;3.17;;
72209;SDS011;60113;48.762;12.302;2023-05-10T02:13:50;5.05;;;3.08;;
72209;SDS011;60113;48.762;12.302;2023-05-10T02:16:31;4.20;;;3.33;;
72209;SDS011;60113;48.762;12.302;2023-05-10T02:21:57;4.35;;;2.88;;
72209;SDS011;60113;48.762;12.302;2023-05-10T02:24:45;4.32;;;3.13;;
72209;SDS011;60113;48.762;12.302;2023-05-10T02:27:12;5.10;;;3.20;;
72209;SDS011;60113;48.762;12.302;2023-05-10T02:29:43;4.35;;;3.30;;
72209;SDS011;60113;48.762;12.302;2023-05-10T02:32:10;4.95;;;3.50;;
72209;SDS011;60113;48.762;12.302;2023-05-10T02:35:05;4.47;;;3.33;;
72209;SDS011;60113;48.762;12.302;2023-05-10T02:37:45;5.25;;;3.38;;
72209;SDS011;60113;48.762;12.302;2023-05-10T02:40:12;5.07;;;3.58;;
72209;SDS011;60113;48.762;12.302;2023-05-10T02:42:42;4.75;;;3.25;;
72209;SDS011;60113;48.762;12.302;2023-05-10T02:45:28;7.93;;;3.80;;
72209;SDS011;60113;48.762;12.302;2023-05-10T02:47:57;5.70;;;3.83;;
72209;SDS011;60113;48.762;12.302;2023-05-10T02:53:18;6.05;;;3.92;;
72209;SDS011;60113;48.762;12.302;2023-05-10T02:55:49;8.63;;;3.55;;
72209;SDS011;60113;48.762;12.302;2023-05-10T02:58:18;5.25;;;3.80;;
72209;SDS011;60113;48.762;12.302;2023-05-10T03:00:52;8.45;;;4.35;;
72209;SDS011;60113;48.762;12.302;2023-05-10T03:03:18;7.82;;;4.53;;
72209;SDS011;60113;48.762;12.302;2023-05-10T03:05:54;7.03;;;4.28;;
72209;SDS011;60113;48.762;12.302;2023-05-10T03:09:05;6.35;;;4.57;;
72209;SDS011;60113;48.762;12.302;2023-05-10T03:12:31;8.63;;;5.07;;
72209;SDS011;60113;48.762;12.302;2023-05-10T03:18:54;6.67;;;4.50;;
72209;SDS011;60113;48.762;12.302;2023-05-10T03:21:28;6.20;;;4.65;;
72209;SDS011;60113;48.762;12.302;2023-05-10T03:24:05;7.35;;;5.22;;
72209;SDS011;60113;48.762;12.302;2023-05-10T03:26:50;9.73;;;4.18;;
72209;SDS011;60113;48.762;12.302;2023-05-10T03:29:20;6.35;;;3.78;;
72209;SDS011;60113;48.762;12.302;2023-05-10T03:31:47;6.40;;;4.18;;
72209;SDS011;60113;48.762;12.302;2023-05-10T03:34:29;10.55;;;4.72;;
72209;SDS011;60113;48.762;12.302;2023-05-10T03:37:36;5.28;;;3.60;;
72209;SDS011;60113;48.762;12.302;2023-05-10T03:40:08;7.45;;;4.45;;
72209;SDS011;60113;48.762;12.302;2023-05-10T03:42:38;7.97;;;4.75;;
72209;SDS011;60113;48.762;12.302;2023-05-10T03:47:58;7.18;;;4.15;;
72209;SDS011;60113;48.762;12.302;2023-05-10T03:50:52;8.27;;;5.07;;
72209;SDS011;60113;48.762;12.302;2023-05-10T03:53:17;7.55;;;4.82;;
72209;SDS011;60113;48.762;12.302;2023-05-10T03:55:43;10.25;;;4.82;;
72209;SDS011;60113;48.762;12.302;2023-05-10T04:02:11;7.82;;;4.80;;
72209;SDS011;60113;48.762;12.302;2023-05-10T04:08:06;11.48;;;7.28;;
72209;SDS011;60113;48.762;12.302;2023-05-10T04:10:55;6.82;;;4.40;;
72209;SDS011;60113;48.762;12.302;2023-05-10T04:13:35;5.18;;;3.97;;
72209;SDS011;60113;48.762;12.302;2023-05-10T04:16:01;8.65;;;4.00;;
72209;SDS011;60113;48.762;12.302;2023-05-10T04:18:27;5.80;;;3.78;;
72209;SDS011;60113;48.762;12.302;2023-05-10T04:20:59;6.05;;;4.15;;
72209;SDS011;60113;48.762;12.302;2023-05-10T04:23:36;5.75;;;4.15;;
72209;SDS011;60113;48.762;12.302;2023-05-10T04:26:01;9.43;;;5.75;;
72209;SDS011;60113;48.762;12.302;2023-05-10T04:28:27;7.78;;;5.10;;
72209;SDS011;60113;48.762;12.302;2023-05-10T04:30:52;9.13;;;5.85;;
72209;SDS011;60113;48.762;12.302;2023-05-10T04:33:19;6.68;;;4.80;;
72209;SDS011;60113;48.762;12.302;2023-05-10T04:35:46;10.07;;;5.30;;
72209;SDS011;60113;48.762;12.302;2023-05-10T04:38:13;6.15;;;4.50;;
72209;SDS011;60113;48.762;12.302;2023-05-10T04:40:39;5.13;;;4.07;;
72209;SDS011;60113;48.762;12.302;2023-05-10T04:43:05;6.22;;;4.07;;
72209;SDS011;60113;48.762;12.302;2023-05-10T04:45:30;4.90;;;3.08;;
72209;SDS011;60113;48.762;12.302;2023-05-10T04:47:56;5.85;;;4.18;;
72209;SDS011;60113;48.762;12.302;2023-05-10T04:50:21;5.57;;;4.03;;
72209;SDS011;60113;48.762;12.302;2023-05-10T04:52:47;6.85;;;4.35;;
72209;SDS011;60113;48.762;12.302;2023-05-10T04:55:12;5.80;;;4.13;;
72209;SDS011;60113;48.762;12.302;2023-05-10T04:57:38;4.70;;;3.47;;
72209;SDS011;60113;48.762;12.302;2023-05-10T05:00:04;5.68;;;3.85;;
72209;SDS011;60113;48.762;12.302;2023-05-10T05:02:30;8.73;;;3.83;;
72209;SDS011;60113;48.762;12.302;2023-05-10T05:04:56;5.95;;;3.25;;
72209;SDS011;60113;48.762;12.302;2023-05-10T05:07:23;6.80;;;3.35;;
72209;SDS011;60113;48.762;12.302;2023-05-10T05:09:48;6.38;;;3.47;;
72209;SDS011;60113;48.762;12.302;2023-05-10T05:12:13;4.40;;;3.22;;
72209;SDS011;60113;48.762;12.302;2023-05-10T05:14:39;4.18;;;3.05;;
72209;SDS011;60113;48.762;12.302;2023-05-10T05:17:06;6.13;;;2.90;;
72209;SDS011;60113;48.762;12.302;2023-05-10T05:19:32;3.88;;;2.53;;
72209;SDS011;60113;48.762;12.302;2023-05-10T05:21:57;6.07;;;3.40;;
72209;SDS011;60113;48.762;12.302;2023-05-10T05:24:23;4.75;;;2.90;;
72209;SDS011;60113;48.762;12.302;2023-05-10T05:26:48;3.83;;;2.10;;
72209;SDS011;60113;48.762;12.302;2023-05-10T05:29:13;5.45;;;2.00;;
72209;SDS011;60113;48.762;12.302;2023-05-10T05:31:39;2.40;;;1.80;;
72209;SDS011;60113;48.762;12.302;2023-05-10T05:34:04;2.40;;;1.67;;
72209;SDS011;60113;48.762;12.302;2023-05-10T05:36:30;2.33;;;1.60;;
72209;SDS011;60113;48.762;12.302;2023-05-10T05:38:56;4.15;;;2.88;;
72209;SDS011;60113;48.762;12.302;2023-05-10T05:41:22;5.20;;;3.38;;
72209;SDS011;60113;48.762;12.302;2023-05-10T05:43:49;5.78;;;3.97;;
72209;SDS011;60113;48.762;12.302;2023-05-10T05:46:14;5.70;;;3.90;;
72209;SDS011;60113;48.762;12.302;2023-05-10T05:48:40;6.63;;;3.58;;
72209;SDS011;60113;48.762;12.302;2023-05-10T05:51:05;4.53;;;3.30;;
72209;SDS011;60113;48.762;12.302;2023-05-10T05:53:31;5.72;;;2.78;;
72209;SDS011;60113;48.762;12.302;2023-05-10T05:55:58;2.08;;;1.60;;
72209;SDS011;60113;48.762;12.302;2023-05-10T05:58:35;2.92;;;1.50;;
72209;SDS011;60113;48.762;12.302;2023-05-10T06:01:01;1.60;;;1.30;;
72209;SDS011;60113;48.762;12.302;2023-05-10T06:03:26;2.58;;;0.90;;
72209;SDS011;60113;48.762;12.302;2023-05-10T06:05:55;1.13;;;0.82;;
72209;SDS011;60113;48.762;12.302;2023-05-10T06:08:23;1.20;;;0.90;;
72209;SDS011;60113;48.762;12.302;2023-05-10T06:10:49;0.93;;;0.80;;
72209;SDS011;60113;48.762;12.302;2023-05-10T06:13:18;0.98;;;0.65;;
72209;SDS011;60113;48.762;12.302;2023-05-10T06:15:43;0.75;;;0.73;;
72209;SDS011;60113;48.762;12.302;2023-05-10T06:18:09;1.80;;;0.90;;
72209;SDS011;60113;48.762;12.302;2023-05-10T06:20:37;0.85;;;0.68;;
72209;SDS011;60113;48.762;12.302;2023-05-10T06:23:03;1.60;;;0.90;;
72209;SDS011;60113;48.762;12.302;2023-05-10T06:25:30;1.38;;;1.00;;
72209;SDS011;60113;48.762;12.302;2023-05-10T06:27:56;1.85;;;1.02;;
72209;SDS011;60113;48.762;12.302;2023-05-10T06:30:27;1.45;;;0.85;;
72209;SDS011;60113;48.762;12.302;2023-05-10T06:32:53;0.63;;;0.40;;
72209;SDS011;60113;48.762;12.302;2023-05-10T06:35:20;1.13;;;1.00;;
72209;SDS011;60113;48.762;12.302;2023-05-10T06:37:47;2.17;;;1.60;;
72209;SDS011;60113;48.762;12.302;2023-05-10T06:40:13;2.33;;;1.70;;
72209;SDS011;60113;48.762;12.302;2023-05-10T06:42:40;3.63;;;1.80;;
72209;SDS011;60113;48.762;12.302;2023-05-10T06:45:07;3.53;;;2.55;;
72209;SDS011;60113;48.762;12.302;2023-05-10T06:47:34;4.00;;;3.03;;
72209;SDS011;60113;48.762;12.302;2023-05-10T06:50:03;4.38;;;2.88;;
72209;SDS011;60113;48.762;12.302;2023-05-10T06:52:32;6.07;;;3.00;;
72209;SDS011;60113;48.762;12.302;2023-05-10T06:54:57;4.43;;;3.15;;
72209;SDS011;60113;48.762;12.302;2023-05-10T06:57:23;5.15;;;3.35;;
72209;SDS011;60113;48.762;12.302;2023-05-10T06:59:52;5.28;;;3.67;;
72209;SDS011;60113;48.762;12.302;2023-05-10T07:02:17;4.28;;;3.13;;
72209;SDS011;60113;48.762;12.302;2023-05-10T07:04:43;7.50;;;3.97;;
72209;SDS011;60113;48.762;12.302;2023-05-10T07:07:17;4.68;;;3.30;;
72209;SDS011;60113;48.762;12.302;2023-05-10T07:09:43;6.85;;;4.57;;
72209;SDS011;60113;48.762;12.302;2023-05-10T07:12:17;6.55;;;3.92;;
72209;SDS011;60113;48.762;12.302;2023-05-10T07:14:43;5.20;;;3.78;;
72209;SDS011;60113;48.762;12.302;2023-05-10T07:17:08;3.85;;;3.20;;
72209;SDS011;60113;48.762;12.302;2023-05-10T07:19:40;4.78;;;3.25;;
72209;SDS011;60113;48.762;12.302;2023-05-10T07:22:05;33.20;;;18.60;;
72209;SDS011;60113;48.762;12.302;2023-05-10T07:24:31;11.02;;;7.15;;
72209;SDS011;60113;48.762;12.302;2023-05-10T07:26:58;6.43;;;4.35;;
72209;SDS011;60113;48.762;12.302;2023-05-10T07:29:23;4.97;;;3.28;;
72209;SDS011;60113;48.762;12.302;2023-05-10T07:31:49;5.75;;;3.78;;
72209;SDS011;60113;48.762;12.302;2023-05-10T07:34:14;4.85;;;3.33;;
72209;SDS011;60113;48.762;12.302;2023-05-10T07:36:40;5.70;;;3.85;;
72209;SDS011;60113;48.762;12.302;2023-05-10T07:39:06;6.28;;;4.10;;
72209;SDS011;60113;48.762;12.302;2023-05-10T07:41:31;7.22;;;3.90;;
72209;SDS011;60113;48.762;12.302;2023-05-10T07:43:57;4.43;;;2.97;;
72209;SDS011;60113;48.762;12.302;2023-05-10T07:46:24;7.53;;;4.35;;
72209;SDS011;60113;48.762;12.302;2023-05-10T07:48:50;7.75;;;4.45;;
72209;SDS011;60113;48.762;12.302;2023-05-10T07:51:15;8.80;;;5.03;;
72209;SDS011;60113;48.762;12.302;2023-05-10T07:53:41;8.52;;;5.43;;
72209;SDS011;60113;48.762;12.302;2023-05-10T07:58:53;9.18;;;5.07;;
72209;SDS011;60113;48.762;12.302;2023-05-10T08:01:19;12.20;;;6.05;;
72209;SDS011;60113;48.762;12.302;2023-05-10T08:03:45;4.82;;;3.28;;
72209;SDS011;60113;48.762;12.302;2023-05-10T08:06:10;6.30;;;3.90;;
72209;SDS011;60113;48.762;12.302;2023-05-10T08:08:36;6.07;;;2.92;;
72209;SDS011;60113;48.762;12.302;2023-05-10T08:11:03;3.42;;;2.13;;
72209;SDS011;60113;48.762;12.302;2023-05-10T08:13:29;3.58;;;2.72;;
72209;SDS011;60113;48.762;12.302;2023-05-10T08:15:54;4.65;;;2.72;;
72209;SDS011;60113;48.762;12.302;2023-05-10T08:18:20;5.25;;;3.17;;
72209;SDS011;60113;48.762;12.302;2023-05-10T08:20:46;5.32;;;3.30;;
72209;SDS011;60113;48.762;12.302;2023-05-10T08:23:14;4.10;;;2.90;;
72209;SDS011;60113;48.762;12.302;2023-05-10T08:25:40;2.97;;;2.45;;
72209;SDS011;60113;48.762;12.302;2023-05-10T08:28:06;3.92;;;2.45;;
72209;SDS011;60113;48.762;12.302;2023-05-10T08:30:31;3.17;;;2.33;;
72209;SDS011;60113;48.762;12.302;2023-05-10T08:32:57;2.90;;;1.90;;
72209;SDS011;60113;48.762;12.302;2023-05-10T08:35:22;2.00;;;1.42;;
72209;SDS011;60113;48.762;12.302;2023-05-10T08:37:48;1.55;;;1.23;;
72209;SDS011;60113;48.762;12.302;2023-05-10T08:40:13;1.88;;;1.40;;
72209;SDS011;60113;48.762;12.302;2023-05-10T08:42:42;4.03;;;1.40;;
72209;SDS011;60113;48.762;12.302;2023-05-10T08:45:12;1.08;;;0.77;;
72209;SDS011;60113;48.762;12.302;2023-05-10T08:47:39;1.35;;;0.57;;
72209;SDS011;60113;48.762;12.302;2023-05-10T08:50:05;1.00;;;0.70;;
72209;SDS011;60113;48.762;12.302;2023-05-10T08:52:32;1.65;;;0.65;;
72209;SDS011;60113;48.762;12.302;2023-05-10T08:55:02;0.70;;;0.50;;
72209;SDS011;60113;48.762;12.302;2023-05-10T08:57:28;0.57;;;0.43;;
72209;SDS011;60113;48.762;12.302;2023-05-10T08:59:53;0.32;;;0.32;;
72209;SDS011;60113;48.762;12.302;2023-05-10T09:02:19;1.38;;;0.80;;
72209;SDS011;60113;48.762;12.302;2023-05-10T09:04:46;0.73;;;0.60;;
72209;SDS011;60113;48.762;12.302;2023-05-10T09:07:11;0.50;;;0.50;;
72209;SDS011;60113;48.762;12.302;2023-05-10T09:09:37;0.40;;;0.30;;
72209;SDS011;60113;48.762;12.302;2023-05-10T09:12:03;0.40;;;0.28;;
72209;SDS011;60113;48.762;12.302;2023-05-10T09:14:29;0.68;;;0.47;;
72209;SDS011;60113;48.762;12.302;2023-05-10T09:16:55;1.65;;;0.63;;
72209;SDS011;60113;48.762;12.302;2023-05-10T09:19:21;1.95;;;0.47;;
72209;SDS011;60113;48.762;12.302;2023-05-10T09:21:46;1.67;;;1.30;;
72209;SDS011;60113;48.762;12.302;2023-05-10T09:24:12;0.40;;;0.40;;
72209;SDS011;60113;48.762;12.302;2023-05-10T09:26:47;0.90;;;0.57;;
72209;SDS011;60113;48.762;12.302;2023-05-10T09:29:13;0.60;;;0.30;;
72209;SDS011;60113;48.762;12.302;2023-05-10T09:34:21;0.57;;;0.45;;
72209;SDS011;60113;48.762;12.302;2023-05-10T09:36:55;0.30;;;0.30;;
72209;SDS011;60113;48.762;12.302;2023-05-10T09:39:34;3.10;;;0.50;;
72209;SDS011;60113;48.762;12.302;2023-05-10T09:42:05;0.30;;;0.30;;
72209;SDS011;60113;48.762;12.302;2023-05-10T09:44:32;0.63;;;0.50;;
72209;SDS011;60113;48.762;12.302;2023-05-10T09:46:59;0.75;;;0.25;;
72209;SDS011;60113;48.762;12.302;2023-05-10T09:49:25;1.10;;;0.80;;
72209;SDS011;60113;48.762;12.302;2023-05-10T09:52:03;0.90;;;0.40;;
72209;SDS011;60113;48.762;12.302;2023-05-10T09:54:30;0.75;;;0.50;;
72209;SDS011;60113;48.762;12.302;2023-05-10T09:56:56;0.60;;;0.40;;
72209;SDS011;60113;48.762;12.302;2023-05-10T09:59:21;0.38;;;0.22;;
72209;SDS011;60113;48.762;12.302;2023-05-10T10:01:51;0.35;;;0.30;;
72209;SDS011;60113;48.762;12.302;2023-05-10T10:04:17;1.25;;;0.40;;
72209;SDS011;60113;48.762;12.302;2023-05-10T10:06:44;1.42;;;0.30;;
72209;SDS011;60113;48.762;12.302;2023-05-10T10:09:10;0.50;;;0.38;;
72209;SDS011;60113;48.762;12.302;2023-05-10T10:11:36;0.82;;;0.38;;
72209;SDS011;60113;48.762;12.302;2023-05-10T10:14:03;0.30;;;0.30;;
72209;SDS011;60113;48.762;12.302;2023-05-10T10:16:30;0.32;;;0.30;;
72209;SDS011;60113;48.762;12.302;2023-05-10T10:18:56;0.63;;;0.40;;
72209;SDS011;60113;48.762;12.302;2023-05-10T10:21:22;0.50;;;0.43;;
72209;SDS011;60113;48.762;12.302;2023-05-10T10:23:49;0.40;;;0.40;;
72209;SDS011;60113;48.762;12.302;2023-05-10T10:26:15;0.40;;;0.40;;
72209;SDS011;60113;48.762;12.302;2023-05-10T10:34:28;0.68;;;0.45;;
72209;SDS011;60113;48.762;12.302;2023-05-10T10:36:55;0.45;;;0.40;;
72209;SDS011;60113;48.762;12.302;2023-05-10T10:39:22;0.40;;;0.40;;
72209;SDS011;60113;48.762;12.302;2023-05-10T10:41:53;0.40;;;0.40;;
72209;SDS011;60113;48.762;12.302;2023-05-10T10:57:44;0.90;;;0.50;;
72209;SDS011;60113;48.762;12.302;2023-05-10T11:00:24;1.30;;;0.80;;
72209;SDS011;60113;48.762;12.302;2023-05-10T11:03:05;0.40;;;0.30;;
72209;SDS011;60113;48.762;12.302;2023-05-10T11:10:50;1.67;;;1.00;;
72209;SDS011;60113;48.762;12.302;2023-05-10T11:13:26;4.03;;;1.30;;
72209;SDS011;60113;48.762;12.302;2023-05-10T11:15:57;2.97;;;1.15;;
72209;SDS011;60113;48.762;12.302;2023-05-10T11:18:24;1.20;;;1.00;;
72209;SDS011;60113;48.762;12.302;2023-05-10T11:23:28;1.10;;;0.90;;
72209;SDS011;60113;48.762;12.302;2023-05-10T11:25:58;0.90;;;0.68;;
72209;SDS011;60113;48.762;12.302;2023-05-10T11:28:26;1.80;;;1.20;;
72209;SDS011;60113;48.762;12.302;2023-05-10T11:30:52;1.50;;;0.95;;
72209;SDS011;60113;48.762;12.302;2023-05-10T11:33:18;1.30;;;0.90;;
72209;SDS011;60113;48.762;12.302;2023-05-10T11:35:45;1.00;;;0.80;;
72209;SDS011;60113;48.762;12.302;2023-05-10T11:38:12;1.38;;;1.00;;
72209;SDS011;60113;48.762;12.302;2023-05-10T11:40:38;1.58;;;1.00;;
72209;SDS011;60113;48.762;12.302;2023-05-10T11:43:04;0.75;;;0.68;;
72209;SDS011;60113;48.762;12.302;2023-05-10T11:45:33;1.17;;;0.77;;
72209;SDS011;60113;48.762;12.302;2023-05-10T11:48:00;1.25;;;0.60;;
72209;SDS011;60113;48.762;12.302;2023-05-10T11:50:26;0.85;;;0.70;;
72209;SDS011;60113;48.762;12.302;2023-05-10T11:52:52;1.48;;;0.70;;
72209;SDS011;60113;48.762;12.302;2023-05-10T11:55:20;1.23;;;0.60;;
72209;SDS011;60113;48.762;12.302;2023-05-10T11:57:45;0.70;;;0.50;;
72209;SDS011;60113;48.762;12.302;2023-05-10T12:00:12;1.42;;;0.57;;
72209;SDS011;60113;48.762;12.302;2023-05-10T12:02:38;1.02;;;0.57;;
72209;SDS011;60113;48.762;12.302;2023-05-10T12:05:04;0.60;;;0.60;;
72209;SDS011;60113;48.762;12.302;2023-05-10T12:07:30;0.90;;;0.73;;
72209;SDS011;60113;48.762;12.302;2023-05-10T12:10:29;0.90;;;0.60;;
72209;SDS011;60113;48.762;12.302;2023-05-10T12:12:51;1.75;;;0.90;;
72209;SDS011;60113;48.762;12.302;2023-05-10T12:15:18;1.42;;;0.80;;
72209;SDS011;60113;48.762;12.302;2023-05-10T12:17:46;1.10;;;0.80;;
72209;SDS011;60113;48.762;12.302;2023-05-10T12:22:51;1.83;;;1.00;;
72209;SDS011;60113;48.762;12.302;2023-05-10T12:25:21;1.88;;;0.90;;
72209;SDS011;60113;48.762;12.302;2023-05-10T12:27:51;1.30;;;0.80;;
72209;SDS011;60113;48.762;12.302;2023-05-10T12:30:27;1.08;;;0.73;;
72209;SDS011;60113;48.762;12.302;2023-05-10T12:32:59;1.35;;;0.90;;
72209;SDS011;60113;48.762;12.302;2023-05-10T12:35:26;2.50;;;0.80;;
72209;SDS011;60113;48.762;12.302;2023-05-10T12:37:54;0.93;;;0.73;;
72209;SDS011;60113;48.762;12.302;2023-05-10T12:40:20;0.70;;;0.43;;
72209;SDS011;60113;48.762;12.302;2023-05-10T12:42:45;0.80;;;0.63;;
72209;SDS011;60113;48.762;12.302;2023-05-10T12:45:11;0.63;;;0.55;;
72209;SDS011;60113;48.762;12.302;2023-05-10T12:47:37;1.08;;;0.52;;
72209;SDS011;60113;48.762;12.302;2023-05-10T12:50:03;0.90;;;0.60;;
72209;SDS011;60113;48.762;12.302;2023-05-10T12:52:29;0.85;;;0.70;;
72209;SDS011;60113;48.762;12.302;2023-05-10T12:54:56;0.80;;;0.60;;
72209;SDS011;60113;48.762;12.302;2023-05-10T12:57:22;2.08;;;0.80;;
72209;SDS011;60113;48.762;12.302;2023-05-10T12:59:47;1.75;;;1.00;;
72209;SDS011;60113;48.762;12.302;2023-05-10T13:02:13;1.10;;;0.80;;
72209;SDS011;60113;48.762;12.302;2023-05-10T13:04:39;1.15;;;0.80;;
72209;SDS011;60113;48.762;12.302;2023-05-10T13:07:06;1.40;;;0.80;;
72209;SDS011;60113;48.762;12.302;2023-05-10T13:09:31;1.23;;;1.00;;
72209;SDS011;60113;48.762;12.302;2023-05-10T13:11:57;1.30;;;0.98;;
72209;SDS011;60113;48.762;12.302;2023-05-10T13:14:24;1.38;;;1.08;;
72209;SDS011;60113;48.762;12.302;2023-05-10T13:16:50;0.93;;;0.80;;
72209;SDS011;60113;48.762;12.302;2023-05-10T13:19:16;1.70;;;0.80;;
72209;SDS011;60113;48.762;12.302;2023-05-10T13:21:42;1.30;;;0.80;;
72209;SDS011;60113;48.762;12.302;2023-05-10T13:24:09;1.77;;;0.90;;
72209;SDS011;60113;48.762;12.302;2023-05-10T13:26:36;3.63;;;0.80;;
72209;SDS011;60113;48.762;12.302;2023-05-10T13:29:02;1.85;;;1.00;;
72209;SDS011;60113;48.762;12.302;2023-05-10T13:31:28;1.25;;;0.95;;
72209;SDS011;60113;48.762;12.302;2023-05-10T13:33:55;1.30;;;0.93;;
72209;SDS011;60113;48.762;12.302;2023-05-10T13:36:21;1.83;;;0.80;;
72209;SDS011;60113;48.762;12.302;2023-05-10T13:38:48;1.00;;;0.80;;
72209;SDS011;60113;48.762;12.302;2023-05-10T13:41:13;1.08;;;0.60;;
72209;SDS011;60113;48.762;12.302;2023-05-10T13:43:39;0.68;;;0.65;;
72209;SDS011;60113;48.762;12.302;2023-05-10T13:46:05;0.90;;;0.70;;
72209;SDS011;60113;48.762;12.302;2023-05-10T13:48:30;1.10;;;0.80;;
72209;SDS011;60113;48.762;12.302;2023-05-10T13:50:56;0.88;;;0.80;;
72209;SDS011;60113;48.762;12.302;2023-05-10T13:53:22;0.90;;;0.65;;
72209;SDS011;60113;48.762;12.302;2023-05-10T13:55:47;1.40;;;0.75;;
72209;SDS011;60113;48.762;12.302;2023-05-10T13:58:14;1.50;;;0.70;;
72209;SDS011;60113;48.762;12.302;2023-05-10T14:00:39;1.20;;;0.60;;
72209;SDS011;60113;48.762;12.302;2023-05-10T14:03:05;1.05;;;0.73;;
72209;SDS011;60113;48.762;12.302;2023-05-10T14:05:31;1.00;;;0.60;;
72209;SDS011;60113;48.762;12.302;2023-05-10T14:07:57;1.30;;;0.85;;
72209;SDS011;60113;48.762;12.302;2023-05-10T14:10:23;0.80;;;0.70;;
72209;SDS011;60113;48.762;12.302;2023-05-10T14:12:49;1.95;;;1.20;;
72209;SDS011;60113;48.762;12.302;2023-05-10T14:15:14;1.83;;;0.95;;
72209;SDS011;60113;48.762;12.302;2023-05-10T14:17:40;1.80;;;1.10;;
72209;SDS011;60113;48.762;12.302;2023-05-10T14:20:06;1.80;;;1.20;;
72209;SDS011;60113;48.762;12.302;2023-05-10T14:22:32;3.60;;;2.03;;
72209;SDS011;60113;48.762;12.302;2023-05-10T14:24:57;2.65;;;1.67;;
72209;SDS011;60113;48.762;12.302;2023-05-10T14:27:23;1.65;;;1.20;;
72209;SDS011;60113;48.762;12.302;2023-05-10T14:29:49;2.85;;;1.10;;
72209;SDS011;60113;48.762;12.302;2023-05-10T14:32:14;2.63;;;1.30;;
72209;SDS011;60113;48.762;12.302;2023-05-10T14:34:39;1.20;;;0.90;;
72209;SDS011;60113;48.762;12.302;2023-05-10T14:37:05;0.93;;;0.50;;
72209;SDS011;60113;48.762;12.302;2023-05-10T14:39:31;1.67;;;0.60;;
72209;SDS011;60113;48.762;12.302;2023-05-10T14:41:56;1.30;;;0.70;;
72209;SDS011;60113;48.762;12.302;2023-05-10T14:44:22;2.15;;;0.63;;
72209;SDS011;60113;48.762;12.302;2023-05-10T14:46:48;1.10;;;0.68;;
72209;SDS011;60113;48.762;12.302;2023-05-10T14:49:14;4.32;;;0.80;;
72209;SDS011;60113;48.762;12.302;2023-05-10T14:51:40;1.60;;;0.70;;
72209;SDS011;60113;48.762;12.302;2023-05-10T14:54:05;0.70;;;0.63;;
72209;SDS011;60113;48.762;12.302;2023-05-10T14:56:31;1.58;;;0.90;;
72209;SDS011;60113;48.762;12.302;2023-05-10T14:58:57;1.08;;;0.80;;
72209;SDS011;60113;48.762;12.302;2023-05-10T15:01:22;1.13;;;0.73;;
72209;SDS011;60113;48.762;12.302;2023-05-10T15:03:49;1.52;;;0.75;;
72209;SDS011;60113;48.762;12.302;2023-05-10T15:06:15;2.33;;;0.68;;
72209;SDS011;60113;48.762;12.302;2023-05-10T15:08:41;1.05;;;0.50;;
72209;SDS011;60113;48.762;12.302;2023-05-10T15:11:07;0.60;;;0.45;;
72209;SDS011;60113;48.762;12.302;2023-05-10T15:13:32;1.85;;;0.45;;
72209;SDS011;60113;48.762;12.302;2023-05-10T15:15:57;1.25;;;0.50;;
72209;SDS011;60113;48.762;12.302;2023-05-10T15:18:23;1.13;;;0.50;;
72209;SDS011;60113;48.762;12.302;2023-05-10T15:20:48;0.57;;;0.50;;
72209;SDS011;60113;48.762;12.302;2023-05-10T15:23:14;0.68;;;0.60;;
72209;SDS011;60113;48.762;12.302;2023-05-10T15:25:39;1.42;;;0.50;;
72209;SDS011;60113;48.762;12.302;2023-05-10T15:28:05;1.27;;;0.80;;
72209;SDS011;60113;48.762;12.302;2023-05-10T15:30:31;1.10;;;0.80;;
72209;SDS011;60113;48.762;12.302;2023-05-10T15:32:56;1.50;;;0.75;;
72209;SDS011;60113;48.762;12.302;2023-05-10T15:35:23;1.85;;;0.70;;
72209;SDS011;60113;48.762;12.302;2023-05-10T15:37:48;1.08;;;0.82;;
72209;SDS011;60113;48.762;12.302;2023-05-10T15:40:14;1.10;;;0.80;;
72209;SDS011;60113;48.762;12.302;2023-05-10T15:42:40;1.77;;;1.05;;
72209;SDS011;60113;48.762;12.302;2023-05-10T15:45:06;1.98;;;1.40;;
72209;SDS011;60113;48.762;12.302;2023-05-10T15:47:32;1.30;;;0.82;;
72209;SDS011;60113;48.762;12.302;2023-05-10T15:49:58;3.13;;;0.77;;
72209;SDS011;60113;48.762;12.302;2023-05-10T15:52:23;1.50;;;0.80;;
72209;SDS011;60113;48.762;12.302;2023-05-10T15:54:49;0.85;;;0.68;;
72209;SDS011;60113;48.762;12.302;2023-05-10T15:57:15;1.80;;;0.98;;
72209;SDS011;60113;48.762;12.302;2023-05-10T15:59:41;7.72;;;2.30;;
72209;SDS011;60113;48.762;12.302;2023-05-10T16:02:08;2.45;;;1.58;;